createdAt,value
2023-02-22T00:01:35.142Z,79.60
2023-02-22T00:04:06.887Z,80.40
2023-02-22T00:06:34.042Z,79.70
2023-02-22T00:09:02.226Z,79.30
2023-02-22T00:11:28.891Z,79.30
2023-02-22T00:13:58.456Z,79.30
2023-02-22T00:16:26.719Z,79.10
2023-02-22T00:18:53.738Z,79.40
2023-02-22T00:21:21.655Z,79.10
2023-02-22T00:23:49.130Z,79.10
2023-02-22T00:26:19.181Z,78.90
2023-02-22T00:28:53.316Z,78.90
2023-02-22T00:31:21.330Z,78.80
2023-02-22T00:33:48.145Z,79.30
2023-02-22T00:36:15.100Z,79.80
2023-02-22T00:38:42.117Z,79.60
2023-02-22T00:41:09.192Z,79.30
2023-02-22T00:43:35.983Z,80.00
2023-02-22T00:46:02.664Z,79.30
2023-02-22T00:48:29.305Z,79.50
2023-02-22T00:50:55.994Z,79.70
2023-02-22T00:53:24.218Z,79.90
2023-02-22T00:55:51.178Z,80.00
2023-02-22T00:58:18.557Z,80.00
2023-02-22T01:00:45.537Z,80.00
2023-02-22T01:03:14.667Z,80.30
2023-02-22T01:05:41.513Z,80.50
2023-02-22T01:08:09.984Z,81.00
2023-02-22T01:10:37.811Z,80.50
2023-02-22T01:13:08.386Z,81.10
2023-02-22T01:15:36.948Z,80.90
2023-02-22T01:18:05.018Z,80.70
2023-02-22T01:20:32.404Z,81.20
2023-02-22T01:23:00.828Z,81.30
2023-02-22T01:25:29.566Z,81.30
2023-02-22T01:27:58.339Z,81.60
2023-02-22T01:30:27.957Z,81.10
2023-02-22T01:32:55.345Z,81.20
2023-02-22T01:35:27.571Z,81.70
2023-02-22T01:37:54.162Z,81.50
2023-02-22T01:40:25.290Z,82.00
2023-02-22T01:42:52.396Z,82.70
2023-02-22T01:45:32.490Z,82.20
2023-02-22T01:48:14.710Z,82.00
2023-02-22T01:50:53.919Z,82.10
2023-02-22T01:53:24.834Z,82.20
2023-02-22T01:55:52.017Z,82.20
2023-02-22T01:58:20.834Z,82.50
2023-02-22T02:00:47.420Z,82.10
2023-02-22T02:03:21.535Z,82.20
2023-02-22T02:05:51.491Z,82.00
2023-02-22T02:08:36.667Z,81.90
2023-02-22T02:11:08.895Z,81.90
2023-02-22T02:13:36.649Z,82.60
2023-02-22T02:16:03.591Z,81.80
2023-02-22T02:18:32.446Z,82.30
2023-02-22T02:21:24.054Z,81.90
2023-02-22T02:24:13.000Z,81.60
2023-02-22T02:27:01.131Z,82.00
2023-02-22T02:29:49.371Z,81.80
2023-02-22T02:32:36.510Z,81.90
2023-02-22T02:35:21.971Z,82.20
2023-02-22T02:38:11.294Z,82.70
2023-02-22T02:40:50.756Z,82.90
2023-02-22T02:43:32.001Z,83.20
2023-02-22T02:46:10.969Z,83.30
2023-02-22T02:48:41.658Z,82.90
2023-02-22T02:51:10.629Z,83.10
2023-02-22T02:53:40.891Z,83.00
2023-02-22T02:56:07.554Z,83.30
2023-02-22T02:58:34.331Z,83.10
2023-02-22T03:01:04.479Z,83.40
2023-02-22T03:04:16.007Z,83.80
2023-02-22T03:07:01.201Z,83.80
2023-02-22T03:09:37.822Z,83.90
2023-02-22T03:12:38.562Z,83.70
2023-02-22T03:15:21.732Z,83.30
2023-02-22T03:18:11.647Z,83.00
2023-02-22T03:20:50.309Z,83.00
2023-02-22T03:23:28.359Z,83.00
2023-02-22T03:26:05.597Z,83.00
2023-02-22T03:28:33.681Z,83.20
2023-02-22T03:31:10.858Z,83.40
2023-02-22T03:33:43.799Z,84.50
2023-02-22T03:36:34.587Z,84.20
2023-02-22T03:39:04.168Z,84.10
2023-02-22T03:41:33.275Z,83.90
2023-02-22T03:44:04.437Z,84.20
2023-02-22T03:46:31.335Z,84.00
2023-02-22T03:49:32.728Z,84.60
2023-02-22T03:51:59.442Z,83.80
2023-02-22T03:54:27.413Z,83.90
2023-02-22T03:56:58.338Z,84.10
2023-02-22T03:59:27.510Z,84.10
2023-02-22T04:01:55.340Z,84.50
2023-02-22T04:04:23.192Z,84.30
2023-02-22T04:06:50.298Z,84.30
2023-02-22T04:09:17.688Z,84.40
2023-02-22T04:11:45.443Z,84.10
2023-02-22T04:14:12.495Z,84.30
2023-02-22T04:16:39.645Z,84.50
2023-02-22T04:19:06.265Z,84.80
2023-02-22T04:21:32.835Z,84.80
2023-02-22T04:23:59.987Z,84.90
2023-02-22T04:26:26.558Z,85.00
2023-02-22T04:28:53.165Z,85.10
2023-02-22T04:31:19.979Z,85.00
2023-02-22T04:33:46.884Z,84.90
2023-02-22T04:36:15.841Z,84.90
2023-02-22T04:38:43.084Z,85.10
2023-02-22T04:41:09.682Z,84.80
2023-02-22T04:43:36.199Z,84.80
2023-02-22T04:46:04.247Z,85.00
2023-02-22T04:48:31.069Z,84.50
2023-02-22T04:50:57.615Z,84.80
2023-02-22T04:53:24.279Z,85.10
2023-02-22T04:55:50.800Z,85.20
2023-02-22T04:58:17.402Z,85.20
2023-02-22T05:00:44.278Z,85.10
2023-02-22T05:03:10.851Z,85.30
2023-02-22T05:05:37.544Z,85.60
2023-02-22T05:08:05.590Z,85.30
2023-02-22T05:10:32.213Z,85.70
2023-02-22T05:12:58.762Z,86.10
2023-02-22T05:15:25.527Z,85.50
2023-02-22T05:17:53.193Z,85.50
2023-02-22T05:20:29.727Z,85.50
2023-02-22T05:22:58.264Z,85.00
2023-02-22T05:25:25.441Z,84.80
2023-02-22T05:27:54.654Z,85.30
2023-02-22T05:30:27.182Z,85.30
2023-02-22T05:32:53.819Z,86.00
2023-02-22T05:35:21.749Z,85.60
2023-02-22T05:37:50.548Z,85.80
2023-02-22T05:40:22.425Z,85.50
2023-02-22T05:42:50.370Z,85.50
2023-02-22T05:45:20.181Z,85.80
2023-02-22T05:47:47.418Z,85.60
2023-02-22T05:50:14.914Z,86.00
2023-02-22T05:52:41.620Z,85.70
2023-02-22T05:55:10.474Z,85.80
2023-02-22T05:57:37.003Z,85.90
2023-02-22T06:00:06.849Z,85.80
2023-02-22T06:02:33.897Z,85.70
2023-02-22T06:05:00.714Z,86.40
2023-02-22T06:07:27.376Z,86.00
2023-02-22T06:09:54.050Z,86.20
2023-02-22T06:12:20.643Z,85.90
2023-02-22T06:14:47.207Z,85.90
2023-02-22T06:17:15.386Z,85.80
2023-02-22T06:19:42.007Z,85.40
2023-02-22T06:22:15.485Z,85.30
2023-02-22T06:24:42.004Z,85.70
2023-02-22T06:27:08.742Z,86.20
2023-02-22T06:29:35.259Z,86.80
2023-02-22T06:32:01.896Z,86.60
2023-02-22T06:34:28.508Z,86.90
2023-02-22T06:36:55.053Z,86.50
2023-02-22T06:39:21.610Z,86.50
2023-02-22T06:41:48.269Z,86.60
2023-02-22T06:44:15.253Z,86.30
2023-02-22T06:46:53.874Z,86.20
2023-02-22T06:49:21.650Z,85.60
2023-02-22T06:51:48.404Z,85.10
2023-02-22T06:54:15.122Z,85.00
2023-02-22T06:56:41.734Z,85.00
2023-02-22T06:59:08.552Z,85.20
2023-02-22T07:01:35.535Z,84.90
2023-02-22T07:04:02.278Z,84.70
2023-02-22T07:06:28.842Z,84.80
2023-02-22T07:08:55.390Z,84.80
2023-02-22T07:11:22.063Z,84.00
2023-02-22T07:13:48.608Z,84.00
2023-02-22T07:16:15.202Z,84.10
2023-02-22T07:18:41.839Z,84.20
2023-02-22T07:21:08.389Z,84.10
2023-02-22T07:23:34.962Z,84.20
2023-02-22T07:26:02.677Z,83.50
2023-02-22T07:28:29.415Z,83.40
2023-02-22T07:30:55.982Z,83.30
2023-02-22T07:33:22.579Z,82.80
2023-02-22T07:35:50.814Z,82.90
2023-02-22T07:38:20.262Z,82.10
2023-02-22T07:40:47.006Z,82.10
2023-02-22T07:43:17.830Z,82.20
2023-02-22T07:45:44.822Z,81.70
2023-02-22T07:48:12.626Z,81.60
2023-02-22T07:50:40.436Z,81.60
2023-02-22T07:53:11.509Z,81.40
2023-02-22T07:55:37.957Z,80.80
2023-02-22T07:58:08.090Z,80.10
2023-02-22T08:00:39.547Z,80.40
2023-02-22T08:03:09.167Z,80.20
2023-02-22T08:05:37.747Z,79.70
2023-02-22T08:08:05.995Z,79.60
2023-02-22T08:10:33.639Z,79.40
2023-02-22T08:13:00.547Z,79.40
2023-02-22T08:15:30.407Z,79.10
2023-02-22T08:17:58.435Z,79.00
2023-02-22T08:20:25.681Z,78.40
2023-02-22T08:22:52.903Z,77.30
2023-02-22T08:25:20.833Z,75.60
2023-02-22T08:27:47.614Z,74.10
2023-02-22T08:30:18.687Z,72.10
2023-02-22T08:32:48.635Z,71.20
2023-02-22T08:35:16.546Z,70.30
2023-02-22T08:37:48.724Z,70.60
2023-02-22T08:40:19.500Z,68.30
2023-02-22T08:42:46.011Z,66.60
2023-02-22T08:45:13.655Z,63.60
2023-02-22T08:47:40.843Z,61.50
2023-02-22T08:50:08.540Z,60.90
2023-02-22T08:52:35.105Z,59.40
2023-02-22T08:55:02.304Z,58.40
2023-02-22T08:57:28.904Z,57.60
2023-02-22T08:59:55.495Z,57.30
2023-02-22T09:02:22.360Z,56.70
2023-02-22T09:04:49.498Z,56.30
2023-02-22T09:07:17.069Z,56.30
2023-02-22T09:09:44.280Z,55.30
2023-02-22T09:12:11.043Z,55.00
2023-02-22T09:14:38.072Z,54.70
2023-02-22T09:17:05.938Z,53.00
2023-02-22T09:19:32.872Z,53.30
2023-02-22T09:21:59.966Z,54.50
2023-02-22T09:24:27.331Z,55.70
2023-02-22T09:26:59.130Z,55.20
2023-02-22T09:29:27.537Z,55.20
2023-02-22T09:31:56.276Z,54.20
2023-02-22T09:34:29.301Z,54.50
2023-02-22T09:36:57.584Z,53.40
2023-02-22T09:39:24.506Z,52.30
2023-02-22T09:42:05.725Z,51.10
2023-02-22T09:44:55.713Z,50.40
2023-02-22T09:47:36.893Z,50.40
2023-02-22T09:50:24.534Z,49.70
2023-02-22T09:53:04.170Z,49.70
2023-02-22T09:55:45.290Z,49.60
2023-02-22T09:58:34.170Z,49.20
2023-02-22T10:01:18.663Z,49.40
2023-02-22T10:04:00.145Z,48.90
2023-02-22T10:06:26.887Z,49.20
2023-02-22T10:08:57.305Z,48.90
2023-02-22T10:12:01.623Z,48.20
2023-02-22T10:15:05.122Z,48.30
2023-02-22T10:18:20.747Z,48.40
2023-02-22T10:21:07.555Z,48.40
2023-02-22T10:23:55.429Z,48.70
2023-02-22T10:26:32.269Z,49.30
2023-02-22T10:29:01.833Z,49.40
2023-02-22T10:31:33.460Z,49.40
2023-02-22T10:34:07.329Z,50.40
2023-02-22T10:36:34.349Z,50.80
2023-02-22T10:39:23.207Z,51.90
2023-02-22T10:41:52.886Z,53.00
2023-02-22T10:44:19.484Z,53.40
2023-02-22T10:46:47.248Z,53.70
2023-02-22T10:49:21.131Z,53.80
2023-02-22T10:52:13.827Z,54.10
2023-02-22T10:54:43.549Z,54.80
2023-02-22T10:57:13.331Z,55.10
2023-02-22T10:59:42.275Z,55.00
2023-02-22T11:02:31.539Z,54.40
2023-02-22T11:05:00.651Z,54.60
2023-02-22T11:07:32.114Z,55.40
2023-02-22T11:10:01.235Z,55.70
2023-02-22T11:12:32.359Z,55.90
2023-02-22T11:15:18.856Z,56.50
2023-02-22T11:17:49.978Z,57.10
2023-02-22T11:20:25.485Z,57.50
2023-02-22T11:22:57.493Z,58.00
2023-02-22T11:25:46.759Z,58.40
2023-02-22T11:28:30.915Z,58.00
2023-02-22T11:31:08.764Z,57.80
2023-02-22T11:33:37.256Z,59.10
2023-02-22T11:36:08.616Z,59.10
2023-02-22T11:38:39.581Z,59.40
2023-02-22T11:41:06.117Z,59.20
2023-02-22T11:43:32.680Z,59.20
2023-02-22T11:46:21.699Z,59.60
2023-02-22T11:49:08.887Z,59.90
2023-02-22T11:51:53.690Z,59.70
2023-02-22T11:54:35.632Z,59.30
2023-02-22T11:57:23.838Z,59.30
2023-02-22T12:00:15.308Z,59.00
2023-02-22T12:02:57.297Z,59.30
2023-02-22T12:05:30.766Z,59.60
2023-02-22T12:08:19.342Z,59.70
2023-02-22T12:11:18.247Z,59.50
2023-02-22T12:14:05.451Z,59.60
2023-02-22T12:16:37.943Z,60.20
2023-02-22T12:19:37.895Z,60.10
2023-02-22T12:22:33.283Z,60.50
2023-02-22T12:25:14.523Z,60.30
2023-02-22T12:27:43.489Z,60.70
2023-02-22T12:30:28.792Z,60.70
2023-02-22T12:33:21.528Z,60.90
2023-02-22T12:35:54.764Z,60.40
2023-02-22T12:38:31.264Z,60.60
2023-02-22T12:41:20.498Z,60.60
2023-02-22T12:43:58.303Z,60.30
2023-02-22T12:46:29.174Z,59.80
2023-02-22T12:49:26.637Z,59.80
2023-02-22T12:52:19.388Z,60.10
2023-02-22T12:54:56.112Z,60.60
2023-02-22T12:57:39.252Z,60.10
2023-02-22T13:00:23.151Z,59.50
2023-02-22T13:03:00.130Z,59.50
2023-02-22T13:05:35.377Z,59.90
2023-02-22T13:08:21.499Z,60.80
2023-02-22T13:11:08.825Z,60.60
2023-02-22T13:13:45.976Z,61.20
2023-02-22T13:16:30.948Z,61.90
2023-02-22T13:19:19.630Z,62.20
2023-02-22T13:21:58.379Z,61.50
2023-02-22T13:24:46.676Z,61.80
2023-02-22T13:27:21.291Z,61.70
2023-02-22T13:29:51.910Z,62.00
2023-02-22T13:32:29.870Z,61.90
2023-02-22T13:35:09.041Z,62.00
2023-02-22T13:37:48.041Z,62.20
2023-02-22T13:40:26.682Z,62.20
2023-02-22T13:43:12.204Z,62.30
2023-02-22T13:45:41.587Z,62.50
2023-02-22T13:48:15.816Z,62.60
2023-02-22T13:50:51.384Z,62.70
2023-02-22T13:53:24.947Z,62.80
2023-02-22T13:55:58.042Z,62.90
2023-02-22T13:58:25.602Z,63.60
2023-02-22T14:00:58.023Z,63.70
2023-02-22T14:03:36.008Z,63.70
2023-02-22T14:06:04.643Z,63.70
2023-02-22T14:08:31.521Z,63.80
2023-02-22T14:11:02.408Z,63.50
2023-02-22T14:13:32.136Z,63.70
2023-02-22T14:15:59.717Z,63.60
2023-02-22T14:18:35.106Z,63.60
2023-02-22T14:21:10.474Z,63.50
2023-02-22T14:23:40.805Z,63.70
2023-02-22T14:26:15.183Z,64.00
2023-02-22T14:28:58.586Z,64.10
2023-02-22T14:31:46.377Z,64.40
2023-02-22T14:34:17.325Z,64.70
2023-02-22T14:37:17.144Z,64.80
2023-02-22T14:40:13.333Z,65.00
2023-02-22T14:42:48.533Z,65.30
2023-02-22T14:45:29.729Z,65.60
2023-02-22T14:48:24.732Z,66.30
2023-02-22T14:50:56.658Z,66.20
2023-02-22T14:53:43.886Z,66.60
2023-02-22T14:56:56.862Z,66.60
2023-02-22T14:59:26.633Z,66.60
2023-02-22T15:02:13.569Z,66.90
2023-02-22T15:04:43.807Z,67.20
2023-02-22T15:07:30.057Z,67.30
2023-02-22T15:10:20.434Z,67.40
2023-02-22T15:13:09.512Z,67.70
2023-02-22T15:15:46.299Z,67.80
2023-02-22T15:18:22.690Z,68.00
2023-02-22T15:20:56.099Z,68.20
2023-02-22T15:23:26.678Z,68.50
2023-02-22T15:25:53.955Z,68.80
2023-02-22T15:28:24.078Z,68.90
2023-02-22T15:30:50.650Z,69.20
2023-02-22T15:33:24.132Z,69.50
2023-02-22T15:35:57.594Z,69.60
2023-02-22T15:38:30.481Z,69.90
2023-02-22T15:41:05.865Z,70.10
2023-02-22T15:43:32.630Z,70.30
2023-02-22T15:46:00.353Z,70.50
2023-02-22T15:48:28.362Z,70.80
2023-02-22T15:51:07.259Z,70.90
2023-02-22T15:53:45.121Z,71.10
2023-02-22T15:56:19.117Z,71.40
2023-02-22T15:58:47.348Z,71.50
2023-02-22T16:01:18.811Z,71.70
2023-02-22T16:03:55.073Z,71.90
2023-02-22T16:06:33.318Z,72.00
2023-02-22T16:09:07.159Z,72.10
2023-02-22T16:11:39.688Z,72.40
2023-02-22T16:14:23.356Z,72.70
2023-02-22T16:16:50.165Z,72.70
2023-02-22T16:19:42.100Z,72.90
2023-02-22T16:22:26.693Z,73.00
2023-02-22T16:24:54.435Z,73.30
2023-02-22T16:27:23.899Z,73.50
2023-02-22T16:30:05.939Z,73.60
2023-02-22T16:32:36.673Z,74.00
2023-02-22T16:35:03.384Z,73.90
2023-02-22T16:37:30.016Z,74.30
2023-02-22T16:39:56.711Z,74.60
2023-02-22T16:42:26.070Z,75.10
2023-02-22T16:44:52.915Z,75.00
2023-02-22T16:47:20.354Z,75.20
2023-02-22T16:49:52.686Z,75.40
2023-02-22T16:52:20.310Z,75.50
2023-02-22T16:54:47.337Z,75.70
2023-02-22T16:57:21.178Z,76.00
2023-02-22T16:59:51.899Z,76.00
2023-02-22T17:02:19.787Z,76.10
2023-02-22T17:04:49.784Z,76.30
2023-02-22T17:07:23.663Z,76.20
2023-02-22T17:09:51.074Z,76.20
2023-02-22T17:12:18.278Z,76.40
2023-02-22T17:14:46.068Z,76.40
2023-02-22T17:17:17.295Z,76.70
2023-02-22T17:19:43.822Z,76.80
2023-02-22T17:22:19.221Z,77.00
2023-02-22T17:24:46.287Z,77.00
2023-02-22T17:27:13.322Z,76.90
2023-02-22T17:29:44.859Z,76.90
2023-02-22T17:32:12.898Z,77.00
2023-02-22T17:34:40.549Z,77.40
2023-02-22T17:37:07.227Z,77.50
2023-02-22T17:39:33.722Z,78.00
2023-02-22T17:42:00.309Z,78.20
2023-02-22T17:44:26.912Z,78.20
2023-02-22T17:46:53.786Z,78.40
2023-02-22T17:49:20.388Z,78.50
2023-02-22T17:51:49.762Z,78.70
2023-02-22T17:54:19.305Z,78.80
2023-02-22T17:56:45.893Z,79.10
2023-02-22T17:59:12.505Z,79.20
2023-02-22T18:01:39.232Z,79.30
2023-02-22T18:04:06.210Z,79.30
2023-02-22T18:06:33.224Z,79.60
2023-02-22T18:09:00.778Z,79.40
2023-02-22T18:11:32.275Z,79.10
2023-02-22T18:13:59.262Z,79.10
2023-02-22T18:16:26.395Z,79.20
2023-02-22T18:18:53.958Z,79.20
2023-02-22T18:21:20.739Z,79.30
2023-02-22T18:23:47.404Z,79.30
2023-02-22T18:26:16.673Z,79.30
2023-02-22T18:28:43.490Z,79.60
2023-02-22T18:31:15.022Z,79.90
2023-02-22T18:33:48.987Z,80.10
2023-02-22T18:36:22.371Z,80.40
2023-02-22T18:38:50.171Z,80.40
2023-02-22T18:41:18.931Z,80.50
2023-02-22T18:43:46.545Z,80.70
2023-02-22T18:46:16.183Z,80.80
2023-02-22T18:48:43.589Z,80.80
2023-02-22T18:51:12.805Z,80.60
2023-02-22T18:53:41.098Z,80.60
2023-02-22T18:56:14.111Z,80.60
2023-02-22T18:58:43.120Z,80.60
2023-02-22T19:01:15.864Z,80.50
2023-02-22T19:03:42.766Z,80.30
2023-02-22T19:06:09.887Z,80.60
2023-02-22T19:08:40.946Z,80.10
2023-02-22T19:11:08.835Z,80.20
2023-02-22T19:13:35.534Z,80.20
2023-02-22T19:16:06.098Z,80.10
2023-02-22T19:18:32.767Z,80.00
2023-02-22T19:21:02.946Z,80.20
2023-02-22T19:23:34.323Z,80.40
2023-02-22T19:26:02.458Z,80.70
2023-02-22T19:28:33.799Z,80.90
2023-02-22T19:31:31.226Z,81.20
2023-02-22T19:34:03.458Z,81.30
2023-02-22T19:36:30.365Z,81.80
2023-02-22T19:39:01.490Z,82.00
2023-02-22T19:41:28.058Z,82.60
2023-02-22T19:43:55.683Z,82.90
2023-02-22T19:46:24.801Z,82.90
2023-02-22T19:48:52.762Z,82.80
2023-02-22T19:51:25.053Z,83.00
2023-02-22T19:53:52.614Z,83.10
2023-02-22T19:56:26.723Z,83.40
2023-02-22T19:58:55.702Z,83.70
2023-02-22T20:01:25.642Z,84.00
2023-02-22T20:03:54.994Z,84.30
2023-02-22T20:06:28.116Z,84.80
2023-02-22T20:08:55.772Z,85.10
2023-02-22T20:11:23.826Z,85.30
2023-02-22T20:13:50.844Z,85.50
2023-02-22T20:16:17.453Z,85.50
2023-02-22T20:18:48.569Z,85.70
2023-02-22T20:21:19.549Z,86.00
2023-02-22T20:23:46.273Z,86.50
2023-02-22T20:26:18.671Z,86.90
2023-02-22T20:28:46.203Z,87.00
2023-02-22T20:31:14.581Z,87.20
2023-02-22T20:33:43.074Z,87.40
2023-02-22T20:36:10.966Z,87.70
2023-02-22T20:38:38.428Z,87.80
2023-02-22T20:41:12.416Z,88.00
2023-02-22T20:43:39.671Z,87.80
2023-02-22T20:46:07.247Z,87.90
2023-02-22T20:48:34.260Z,88.00
2023-02-22T20:51:13.207Z,88.20
2023-02-22T20:53:41.760Z,88.40
2023-02-22T20:56:16.897Z,88.50
2023-02-22T20:58:43.812Z,88.80
2023-02-22T21:01:12.722Z,88.80
2023-02-22T21:03:42.045Z,88.90
2023-02-22T21:06:10.030Z,89.00
2023-02-22T21:08:36.743Z,89.50
2023-02-22T21:11:09.315Z,88.80
2023-02-22T21:13:35.891Z,88.80
2023-02-22T21:16:02.408Z,88.80
2023-02-22T21:18:28.964Z,88.80
2023-02-22T21:20:55.571Z,89.00
2023-02-22T21:23:22.122Z,89.40
2023-02-22T21:25:52.864Z,89.60
2023-02-22T21:28:19.747Z,89.80
2023-02-22T21:30:47.098Z,89.80
2023-02-22T21:33:17.273Z,89.90
2023-02-22T21:35:46.871Z,89.90
2023-02-22T21:38:14.438Z,90.10
2023-02-22T21:40:46.951Z,90.10
2023-02-22T21:43:13.485Z,90.10
2023-02-22T21:45:40.071Z,90.10
2023-02-22T21:48:06.666Z,90.20
2023-02-22T21:50:37.582Z,90.20
2023-02-22T21:53:05.760Z,90.20
2023-02-22T21:55:34.178Z,90.20
2023-02-22T21:58:00.805Z,90.30
2023-02-22T22:00:31.479Z,90.40
2023-02-22T22:03:20.232Z,90.50
2023-02-22T22:05:48.066Z,90.50
2023-02-22T22:08:21.631Z,90.50
2023-02-22T22:10:54.960Z,90.60
2023-02-22T22:13:22.840Z,90.60
2023-02-22T22:15:50.307Z,90.60
2023-02-22T22:18:17.455Z,90.60
2023-02-22T22:20:44.859Z,90.50
2023-02-22T22:23:12.439Z,90.50
2023-02-22T22:25:39.066Z,90.60
2023-02-22T22:28:07.444Z,90.60
2023-02-22T22:30:36.868Z,90.70
2023-02-22T22:33:05.410Z,90.70
2023-02-22T22:35:37.801Z,90.80
2023-02-22T22:38:04.331Z,90.90
2023-02-22T22:40:34.188Z,91.00
2023-02-22T22:43:00.851Z,91.10
2023-02-22T22:45:27.551Z,91.50
2023-02-22T22:47:54.075Z,91.40
2023-02-22T22:50:26.226Z,91.50
2023-02-22T22:52:55.506Z,91.50
2023-02-22T22:55:24.166Z,91.70
2023-02-22T22:57:51.753Z,91.80
2023-02-22T23:00:29.625Z,91.80
2023-02-22T23:02:57.162Z,91.80
2023-02-22T23:05:30.890Z,91.80
2023-02-22T23:07:57.547Z,91.80
2023-02-22T23:10:27.661Z,91.70
2023-02-22T23:12:56.401Z,91.70
2023-02-22T23:15:26.959Z,91.50
2023-02-22T23:17:59.040Z,91.40
2023-02-22T23:20:26.528Z,91.60
2023-02-22T23:22:54.414Z,91.40
2023-02-22T23:25:21.950Z,91.60
2023-02-22T23:27:49.380Z,91.70
2023-02-22T23:30:18.598Z,91.90
2023-02-22T23:32:46.596Z,91.90
2023-02-22T23:35:14.773Z,91.80
2023-02-22T23:37:42.577Z,92.00
2023-02-22T23:40:16.929Z,91.80
2023-02-22T23:42:48.471Z,91.80
2023-02-22T23:45:22.809Z,91.90
2023-02-22T23:47:57.111Z,92.00
2023-02-22T23:50:25.274Z,91.90
2023-02-22T23:53:02.491Z,92.10
2023-02-22T23:55:31.807Z,92.10
2023-02-22T23:58:03.245Z,92.20
